Clyde, Iowa
Current Conditions -  °F | °C
As of 5:13 AM on Friday 24 Oct 2014 (Local Time) from KAMW Reporting Station
Moderate Fog Moderate Fog  
Wind Chill: 46°   Ceiling: 200
Heat Index: 48°   Visibility: 0.25mi
Dew Point: 47°   Wind: 5mph
Humidity: 96%   Direction: 150°SSE
Pressure: 29.99"   Gusts: NA
Location:  41.9063°N, 93.2893°W
Report Text: KAMW 241013Z AUTO 15004KT 1/4SM FG VV002 09/08 A2999 RMK AO2 T00890083
Loading
Personal Weather Stations






























Interactive Weather Map
Tropical Storm Tracking
New forecast layout! Learn more

10-Day Weather Forecast

Advertisements
Track Severe Weather on mobile